Time;durP1;ratioP1;P1;durP2;ratioP2;P2;SDS_P1;SDS_P2;PMS_P1;PMS_P2;Temp;Humidity;BMP_temperature;BMP_pressure;BME280_temperature;BME280_humidity;BME280_pressure;Samples;Min_cycle;Max_cycle;Signal;HPM_P1;HPM_P2
2021/01/17 00:00:49;;;;;;;17.90;7.28;;;;;;;;;;5018832;28;20033;-60
2021/01/17 00:03:15;;;;;;;19.50;7.97;;;;;;;;;;5032644;28;20045;-60
2021/01/17 00:05:44;;;;;;;21.95;7.00;;;;;;;;;;5015929;28;20052;-60
2021/01/17 00:08:12;;;;;;;21.45;7.57;;;;;;;;;;5020265;28;20085;-60
2021/01/17 00:10:39;;;;;;;22.80;8.53;;;;;;;;;;5017026;28;20034;-61
2021/01/17 00:13:06;;;;;;;26.15;8.60;;;;;;;;;;4991146;28;20034;-61
2021/01/17 00:15:33;;;;;;;21.38;6.97;;;;;;;;;;4982297;28;20100;-60
2021/01/17 00:17:59;;;;;;;18.55;7.00;;;;;;;;;;4977624;28;20053;-60
2021/01/17 00:20:25;;;;;;;25.80;9.52;;;;;;;;;;4981933;28;20050;-59
2021/01/17 00:22:53;;;;;;;24.27;8.82;;;;;;;;;;4993988;28;20147;-59
2021/01/17 00:25:21;;;;;;;16.63;6.55;;;;;;;;;;5017274;28;20050;-60
2021/01/17 00:27:49;;;;;;;19.98;7.72;;;;;;;;;;5013870;28;20042;-60
2021/01/17 00:30:17;;;;;;;17.90;6.68;;;;;;;;;;5012899;28;20041;-59
2021/01/17 00:32:47;;;;;;;25.00;9.95;;;;;;;;;;5003316;28;20038;-59
2021/01/17 00:35:13;;;;;;;21.23;6.93;;;;;;;;;;5000007;28;20074;-59
2021/01/17 00:37:39;;;;;;;22.30;6.63;;;;;;;;;;4997640;28;20042;-60
2021/01/17 00:40:06;;;;;;;25.30;7.85;;;;;;;;;;5001923;28;20042;-60
2021/01/17 00:42:33;;;;;;;22.58;8.15;;;;;;;;;;4996766;28;20128;-60
2021/01/17 00:44:58;;;;;;;23.17;8.27;;;;;;;;;;5001198;28;20049;-60
2021/01/17 00:47:25;;;;;;;26.67;9.35;;;;;;;;;;4998268;28;20038;-60
2021/01/17 00:49:51;;;;;;;25.77;9.23;;;;;;;;;;5001277;28;20046;-61
2021/01/17 00:52:17;;;;;;;19.23;7.78;;;;;;;;;;4997623;28;20055;-60
2021/01/17 00:54:43;;;;;;;20.67;7.97;;;;;;;;;;5000219;28;20050;-60
2021/01/17 00:57:09;;;;;;;21.75;8.13;;;;;;;;;;5001301;28;20143;-60
2021/01/17 00:59:36;;;;;;;21.70;8.70;;;;;;;;;;4997057;28;20123;-59
2021/01/17 01:02:03;;;;;;;20.08;8.15;;;;;;;;;;5001236;28;20046;-60
2021/01/17 01:04:29;;;;;;;23.95;8.55;;;;;;;;;;5015176;28;20038;-59
2021/01/17 01:06:55;;;;;;;29.98;9.85;;;;;;;;;;5001838;28;20041;-59
2021/01/17 01:09:21;;;;;;;27.33;8.05;;;;;;;;;;4997434;28;20045;-59
2021/01/17 01:11:47;;;;;;;27.95;9.82;;;;;;;;;;5003251;28;20046;-60
2021/01/17 01:14:13;;;;;;;28.77;8.68;;;;;;;;;;4998963;28;20126;-60
2021/01/17 01:16:40;;;;;;;23.98;8.80;;;;;;;;;;5002996;28;20124;-60
2021/01/17 01:19:06;;;;;;;24.50;8.40;;;;;;;;;;4998585;28;20034;-60
2021/01/17 01:21:33;;;;;;;20.92;7.53;;;;;;;;;;5003614;28;20068;-61
2021/01/17 01:23:59;;;;;;;19.77;7.60;;;;;;;;;;4995388;28;20047;-60
2021/01/17 01:26:26;;;;;;;20.35;8.57;;;;;;;;;;4981305;28;20051;-61
2021/01/17 01:28:53;;;;;;;24.98;8.45;;;;;;;;;;4985148;28;20090;-60
2021/01/17 01:31:20;;;;;;;26.95;9.05;;;;;;;;;;5001878;28;20128;-61
2021/01/17 01:33:47;;;;;;;20.57;8.17;;;;;;;;;;4999416;28;20044;-61
2021/01/17 01:36:17;;;;;;;22.73;9.15;;;;;;;;;;5001915;28;20046;-60
2021/01/17 01:38:43;;;;;;;27.83;8.77;;;;;;;;;;5000606;28;20085;-60
2021/01/17 01:41:09;;;;;;;26.88;10.07;;;;;;;;;;4997963;28;20124;-60
2021/01/17 01:43:36;;;;;;;23.88;7.80;;;;;;;;;;5016340;28;20042;-60
2021/01/17 01:46:02;;;;;;;26.65;9.38;;;;;;;;;;4995886;28;20057;-59
2021/01/17 01:48:30;;;;;;;21.67;8.38;;;;;;;;;;5000059;28;20052;-59
2021/01/17 01:51:01;;;;;;;27.83;9.13;;;;;;;;;;4998311;28;20038;-60
2021/01/17 01:53:28;;;;;;;27.83;8.15;;;;;;;;;;5018366;28;20040;-59
2021/01/17 01:55:54;;;;;;;19.30;7.35;;;;;;;;;;5006778;28;20034;-60
2021/01/17 01:58:22;;;;;;;22.73;7.50;;;;;;;;;;5022264;28;20046;-60
2021/01/17 02:00:48;;;;;;;30.23;9.95;;;;;;;;;;5000656;28;20057;-60
2021/01/17 02:03:14;;;;;;;26.48;8.10;;;;;;;;;;5020083;28;20046;-60
2021/01/17 02:05:40;;;;;;;27.13;7.97;;;;;;;;;;5017439;28;20054;-59
2021/01/17 02:08:24;;;;;;;23.83;8.90;;;;;;;;;;5008736;28;20049;-60
2021/01/17 02:10:52;;;;;;;26.30;9.30;;;;;;;;;;5021289;28;20030;-60
2021/01/17 02:13:19;;;;;;;27.05;9.02;;;;;;;;;;5021797;28;20052;-60
2021/01/17 02:15:45;;;;;;;26.45;9.20;;;;;;;;;;5021376;28;20160;-59
2021/01/17 02:18:12;;;;;;;24.17;7.72;;;;;;;;;;5024749;28;20041;-60
2021/01/17 02:20:39;;;;;;;22.48;8.23;;;;;;;;;;5019546;28;20044;-60
2021/01/17 02:23:08;;;;;;;20.48;7.88;;;;;;;;;;5024759;28;20112;-60
2021/01/17 02:25:35;;;;;;;27.45;8.35;;;;;;;;;;5024442;28;20127;-60
2021/01/17 02:28:02;;;;;;;23.13;8.27;;;;;;;;;;5020490;28;20057;-59
2021/01/17 02:30:30;;;;;;;25.98;8.77;;;;;;;;;;5024550;28;20083;-59
2021/01/17 02:32:58;;;;;;;22.02;8.32;;;;;;;;;;5019200;28;20103;-59
2021/01/17 02:35:25;;;;;;;21.42;6.53;;;;;;;;;;5025240;28;20115;-59
2021/01/17 02:37:57;;;;;;;19.38;7.53;;;;;;;;;;5021903;28;20079;-60
2021/01/17 02:40:31;;;;;;;30.35;10.93;;;;;;;;;;5025958;28;20032;-60
2021/01/17 02:42:58;;;;;;;31.13;9.05;;;;;;;;;;5019864;28;20049;-60
2021/01/17 02:45:25;;;;;;;18.90;7.78;;;;;;;;;;5023736;28;20127;-60
2021/01/17 02:47:51;;;;;;;20.90;7.28;;;;;;;;;;5020551;28;20049;-60
2021/01/17 02:50:17;;;;;;;30.33;9.73;;;;;;;;;;5022480;28;20049;-60
2021/01/17 02:52:45;;;;;;;27.55;8.90;;;;;;;;;;5019940;28;20046;-59
2021/01/17 02:55:11;;;;;;;20.30;6.82;;;;;;;;;;5023035;28;20049;-61
2021/01/17 02:57:37;;;;;;;18.65;6.90;;;;;;;;;;5020201;28;20057;-60
2021/01/17 03:00:17;;;;;;;;;;;;;;;;;;;;;
2021/01/17 03:05:52;;;;;;;21.65;7.60;;;;;;;;;;4980915;28;20054;-59
2021/01/17 03:08:18;;;;;;;19.52;7.65;;;;;;;;;;4997685;28;20075;-61
2021/01/17 03:10:51;;;;;;;22.70;7.05;;;;;;;;;;4989142;28;20034;-60
2021/01/17 03:13:18;;;;;;;21.45;8.23;;;;;;;;;;4987685;28;20051;-60
2021/01/17 03:15:45;;;;;;;23.75;7.93;;;;;;;;;;5002153;28;20053;-61
2021/01/17 03:18:11;;;;;;;23.40;8.07;;;;;;;;;;4991183;28;20054;-61
2021/01/17 03:20:37;;;;;;;24.77;9.20;;;;;;;;;;4983968;28;20044;-60
2021/01/17 03:23:03;;;;;;;22.42;8.80;;;;;;;;;;4986312;28;20075;-61
2021/01/17 03:25:29;;;;;;;25.30;8.27;;;;;;;;;;4966056;28;20066;-62
2021/01/17 03:27:55;;;;;;;19.23;7.15;;;;;;;;;;4973377;28;20031;-61
2021/01/17 03:30:22;;;;;;;18.67;7.38;;;;;;;;;;4984633;28;20063;-61
2021/01/17 03:32:49;;;;;;;21.88;7.25;;;;;;;;;;4985254;28;20118;-59
2021/01/17 03:35:15;;;;;;;25.23;8.90;;;;;;;;;;4986546;28;20031;-59
2021/01/17 03:37:41;;;;;;;20.85;7.07;;;;;;;;;;4982701;28;20069;-59
2021/01/17 03:40:09;;;;;;;18.40;6.25;;;;;;;;;;4986795;28;20119;-60
2021/01/17 03:42:36;;;;;;;16.40;5.97;;;;;;;;;;4981082;28;20046;-59
2021/01/17 03:45:02;;;;;;;24.70;7.57;;;;;;;;;;4995132;28;20050;-59
2021/01/17 03:47:28;;;;;;;20.27;6.43;;;;;;;;;;4999900;28;20139;-59
2021/01/17 03:49:57;;;;;;;25.30;8.70;;;;;;;;;;4984576;28;20042;-59
2021/01/17 03:52:23;;;;;;;22.45;7.93;;;;;;;;;;4970877;28;20054;-59
2021/01/17 03:54:49;;;;;;;24.02;7.57;;;;;;;;;;4965272;28;20065;-60
2021/01/17 03:57:15;;;;;;;20.85;7.38;;;;;;;;;;4968831;28;20027;-60
2021/01/17 03:59:43;;;;;;;19.67;6.53;;;;;;;;;;4966432;28;20042;-59
2021/01/17 04:02:09;;;;;;;24.05;7.75;;;;;;;;;;4970204;28;20034;-59
2021/01/17 04:04:35;;;;;;;20.73;7.63;;;;;;;;;;4969811;28;20030;-60
2021/01/17 04:07:02;;;;;;;19.05;6.47;;;;;;;;;;4976457;28;20038;-60
2021/01/17 04:09:28;;;;;;;22.90;7.65;;;;;;;;;;4984848;28;20030;-60
2021/01/17 04:11:55;;;;;;;18.27;5.80;;;;;;;;;;4982970;28;20089;-61
2021/01/17 04:14:21;;;;;;;16.33;6.00;;;;;;;;;;4986080;28;20035;-60
2021/01/17 04:16:50;;;;;;;16.83;6.65;;;;;;;;;;4981813;28;20042;-60
2021/01/17 04:19:16;;;;;;;16.98;6.68;;;;;;;;;;4986403;28;20053;-59
2021/01/17 04:21:49;;;;;;;19.13;6.38;;;;;;;;;;4983462;28;20098;-60
2021/01/17 04:24:16;;;;;;;18.70;6.47;;;;;;;;;;4990522;28;20046;-59
2021/01/17 04:26:45;;;;;;;16.30;5.70;;;;;;;;;;4986320;28;20048;-60
2021/01/17 04:29:11;;;;;;;;;;;;;;;;;;4986768;28;20043;-61
2021/01/17 04:31:42;;;;;;;14.77;5.10;;;;;;;;;;4981953;28;20000;-61
2021/01/17 04:34:09;;;;;;;15.10;5.43;;;;;;;;;;4986096;28;20038;-61
2021/01/17 04:36:35;;;;;;;16.98;6.78;;;;;;;;;;4983120;28;20058;-61
2021/01/17 04:39:01;;;;;;;18.55;6.30;;;;;;;;;;4986985;28;20158;-60
2021/01/17 04:41:28;;;;;;;19.33;6.50;;;;;;;;;;4984028;28;20030;-59
2021/01/17 04:43:56;;;;;;;22.10;6.82;;;;;;;;;;4984175;28;20043;-61
2021/01/17 04:46:23;;;;;;;25.60;7.70;;;;;;;;;;4987416;28;20039;-59
2021/01/17 04:48:52;;;;;;;21.13;7.45;;;;;;;;;;4982428;28;20051;-59
2021/01/17 04:51:22;;;;;;;16.38;6.53;;;;;;;;;;4985798;28;20098;-60
2021/01/17 04:53:49;;;;;;;21.85;8.15;;;;;;;;;;4982429;28;20053;-59
2021/01/17 04:56:18;;;;;;;20.10;7.25;;;;;;;;;;4985872;28;20085;-60
2021/01/17 04:58:45;;;;;;;18.33;6.82;;;;;;;;;;4979146;28;20055;-61
2021/01/17 05:01:38;;;;;;;19.95;7.38;;;;;;;;;;4972099;28;20046;-60
2021/01/17 05:04:10;;;;;;;18.33;7.20;;;;;;;;;;4985109;28;20050;-60
2021/01/17 05:06:38;;;;;;;18.60;6.40;;;;;;;;;;5001350;28;20116;-60
2021/01/17 05:09:07;;;;;;;17.77;6.60;;;;;;;;;;4984175;28;20044;-60
2021/01/17 05:11:39;;;;;;;18.67;6.35;;;;;;;;;;5004441;28;20057;-60
2021/01/17 05:14:13;;;;;;;17.00;6.95;;;;;;;;;;4984901;28;20055;-60
2021/01/17 05:16:40;;;;;;;17.15;6.90;;;;;;;;;;4987807;28;20050;-60
2021/01/17 05:19:10;;;;;;;22.25;6.72;;;;;;;;;;5001790;28;20038;-60
2021/01/17 05:21:48;;;;;;;17.58;7.00;;;;;;;;;;4988104;28;20056;-60
2021/01/17 05:24:15;;;;;;;19.83;5.97;;;;;;;;;;5001690;28;20042;-60
2021/01/17 05:26:42;;;;;;;13.45;5.35;;;;;;;;;;4988157;28;20356;-61
2021/01/17 05:29:08;;;;;;;19.67;6.88;;;;;;;;;;4985137;28;20038;-60
2021/01/17 05:31:35;;;;;;;15.90;5.95;;;;;;;;;;5004934;28;20041;-60
2021/01/17 05:34:01;;;;;;;20.25;7.22;;;;;;;;;;4982996;28;20042;-60
2021/01/17 05:36:27;;;;;;;14.95;6.50;;;;;;;;;;5004387;28;20034;-61
2021/01/17 05:39:06;;;;;;;18.55;7.15;;;;;;;;;;4984289;28;20038;-61
2021/01/17 05:41:32;;;;;;;;;;;;;;;;;;5005400;28;20046;-61
2021/01/17 05:43:58;;;;;;;14.77;5.10;;;;;;;;;;4999670;28;19929;-62
2021/01/17 05:46:24;;;;;;;18.08;6.80;;;;;;;;;;4988949;28;20053;-61
2021/01/17 05:49:08;;;;;;;17.73;5.35;;;;;;;;;;5006550;28;20038;-61
2021/01/17 05:51:34;;;;;;;14.85;6.13;;;;;;;;;;4970583;28;20049;-61
2021/01/17 05:54:05;;;;;;;20.20;6.82;;;;;;;;;;4984533;28;20043;-61
2021/01/17 05:56:33;;;;;;;15.85;6.00;;;;;;;;;;4984263;28;20070;-62
2021/01/17 05:58:59;;;;;;;20.00;6.82;;;;;;;;;;4988074;28;20045;-61
2021/01/17 06:01:25;;;;;;;25.60;7.22;;;;;;;;;;5000244;28;20112;-60
2021/01/17 06:03:53;;;;;;;24.13;7.00;;;;;;;;;;5003936;28;20093;-61
2021/01/17 06:06:26;;;;;;;17.42;7.03;;;;;;;;;;4999706;28;20062;-61
2021/01/17 06:08:54;;;;;;;18.60;6.95;;;;;;;;;;4988625;28;20034;-61
2021/01/17 06:11:20;;;;;;;24.27;8.13;;;;;;;;;;4985039;28;20038;-60
2021/01/17 06:13:54;;;;;;;18.50;6.72;;;;;;;;;;4986928;28;20054;-60
2021/01/17 06:16:25;;;;;;;16.35;6.20;;;;;;;;;;4983828;28;20038;-59
2021/01/17 06:18:56;;;;;;;19.80;6.95;;;;;;;;;;5002985;28;20049;-60
2021/01/17 06:21:31;;;;;;;16.38;6.05;;;;;;;;;;5000596;28;20089;-61
2021/01/17 06:23:58;;;;;;;20.75;6.88;;;;;;;;;;5002685;28;20120;-61
2021/01/17 06:26:26;;;;;;;16.45;6.13;;;;;;;;;;4983264;28;20099;-60
2021/01/17 06:28:53;;;;;;;20.00;5.97;;;;;;;;;;4986492;28;20181;-61
2021/01/17 06:31:37;;;;;;;18.27;6.80;;;;;;;;;;4985568;28;20053;-60
2021/01/17 06:34:08;;;;;;;18.58;5.80;;;;;;;;;;4986496;28;20042;-59
2021/01/17 06:36:35;;;;;;;14.75;5.70;;;;;;;;;;4984606;28;20049;-60
2021/01/17 06:39:01;;;;;;;21.10;7.00;;;;;;;;;;4989904;28;20058;-60
2021/01/17 06:41:39;;;;;;;22.30;6.95;;;;;;;;;;4986217;28;20026;-60
2021/01/17 06:44:09;;;;;;;18.38;6.63;;;;;;;;;;4972461;28;20046;-60
2021/01/17 06:46:39;;;;;;;23.02;7.60;;;;;;;;;;4986689;28;20058;-59
2021/01/17 06:49:16;;;;;;;18.52;6.78;;;;;;;;;;5007315;28;20041;-60
2021/01/17 06:51:55;;;;;;;21.65;6.80;;;;;;;;;;5003650;28;20030;-60
2021/01/17 06:54:22;;;;;;;19.75;7.47;;;;;;;;;;4990249;28;20039;-60
2021/01/17 06:56:50;;;;;;;22.17;7.28;;;;;;;;;;4986224;28;20066;-60
2021/01/17 06:59:29;;;;;;;22.93;6.30;;;;;;;;;;4990654;28;20034;-60
2021/01/17 07:02:06;;;;;;;26.70;6.93;;;;;;;;;;5003349;28;20334;-61
2021/01/17 07:04:40;;;;;;;23.77;7.20;;;;;;;;;;4970607;28;20035;-61
2021/01/17 07:07:37;;;;;;;19.27;6.93;;;;;;;;;;4965163;28;20042;-62
2021/01/17 07:10:06;;;;;;;21.25;6.75;;;;;;;;;;4926549;29;20055;-60
2021/01/17 07:12:41;;;;;;;22.48;8.10;;;;;;;;;;4991111;28;20049;-59
2021/01/17 07:15:10;;;;;;;19.52;6.55;;;;;;;;;;5004432;28;20046;-59
2021/01/17 07:17:36;;;;;;;;;;;;;;;;;;5006103;28;20053;-60
2021/01/17 07:20:05;;;;;;;18.23;6.22;;;;;;;;;;4987945;28;19979;-60
2021/01/17 07:22:32;;;;;;;22.45;6.85;;;;;;;;;;4987775;28;20045;-61
2021/01/17 07:24:59;;;;;;;22.77;7.00;;;;;;;;;;4985994;28;20045;-61
2021/01/17 07:27:37;;;;;;;26.60;6.90;;;;;;;;;;4988486;28;20116;-62
2021/01/17 07:30:04;;;;;;;23.90;6.70;;;;;;;;;;5002751;28;20125;-60
2021/01/17 07:32:33;;;;;;;20.77;7.15;;;;;;;;;;5005125;28;20050;-60
2021/01/17 07:35:06;;;;;;;23.83;7.10;;;;;;;;;;5001676;28;20057;-60
2021/01/17 07:37:32;;;;;;;21.80;6.95;;;;;;;;;;5005832;28;20056;-60
2021/01/17 07:40:08;;;;;;;26.08;7.60;;;;;;;;;;5002011;28;20066;-61
2021/01/17 07:42:34;;;;;;;25.42;7.35;;;;;;;;;;4989617;28;20053;-60
2021/01/17 07:45:12;;;;;;;31.38;8.07;;;;;;;;;;4986459;28;20029;-61
2021/01/17 07:47:41;;;;;;;20.45;6.78;;;;;;;;;;4989538;28;20038;-61
2021/01/17 07:50:15;;;;;;;;;;;;;;;;;;4985319;28;20046;-60
2021/01/17 07:52:47;;;;;;;17.00;5.45;;;;;;;;;;5005106;28;20003;-60
2021/01/17 07:55:13;;;;;;;28.50;5.88;;;;;;;;;;4986641;28;20034;-60
2021/01/17 07:57:44;;;;;;;24.80;7.18;;;;;;;;;;4990279;28;20034;-60
2021/01/17 08:00:13;;;;;;;25.02;7.35;;;;;;;;;;4984935;28;20023;-60
2021/01/17 08:02:40;;;;;;;26.70;8.27;;;;;;;;;;5006204;28;20145;-60
2021/01/17 08:05:06;;;;;;;31.15;8.15;;;;;;;;;;4982207;28;20042;-61
2021/01/17 08:07:32;;;;;;;20.73;7.15;;;;;;;;;;4988650;28;20078;-60
2021/01/17 08:10:00;;;;;;;28.00;8.73;;;;;;;;;;4969402;28;20034;-60
2021/01/17 08:12:30;;;;;;;30.98;8.45;;;;;;;;;;5004609;28;20045;-61
2021/01/17 08:15:15;;;;;;;31.02;8.07;;;;;;;;;;4986379;28;20038;-60
2021/01/17 08:17:41;;;;;;;27.50;8.70;;;;;;;;;;5002205;28;20046;-60
2021/01/17 08:20:08;;;;;;;31.33;8.15;;;;;;;;;;4984516;28;20116;-60
2021/01/17 08:22:40;;;;;;;32.25;8.63;;;;;;;;;;4987963;28;20122;-60
2021/01/17 08:25:08;;;;;;;31.13;9.57;;;;;;;;;;4986366;28;20144;-61
2021/01/17 08:27:35;;;;;;;25.10;7.57;;;;;;;;;;4987894;28;20030;-61
2021/01/17 08:30:23;;;;;;;28.23;8.85;;;;;;;;;;4990595;28;20034;-60
2021/01/17 08:32:50;;;;;;;25.83;9.02;;;;;;;;;;5003705;28;20045;-61
2021/01/17 08:35:29;;;;;;;29.42;9.02;;;;;;;;;;4990113;28;20120;-61
2021/01/17 08:37:56;;;;;;;33.75;9.20;;;;;;;;;;5005896;28;20037;-61
2021/01/17 08:40:42;;;;;;;27.13;8.38;;;;;;;;;;5009837;28;20046;-61
2021/01/17 08:43:09;;;;;;;31.02;9.00;;;;;;;;;;4985844;28;20039;-62
2021/01/17 08:45:37;;;;;;;27.33;8.88;;;;;;;;;;5022407;28;20053;-62
2021/01/17 08:48:21;;;;;;;25.80;7.90;;;;;;;;;;4983885;28;20050;-62
2021/01/17 08:50:50;;;;;;;27.88;8.57;;;;;;;;;;5003831;28;20038;-61
2021/01/17 08:53:16;;;;;;;;;;;;;;;;;;4984216;28;20030;-61
2021/01/17 08:55:47;;;;;;;20.42;6.57;;;;;;;;;;4987200;28;20007;-61
2021/01/17 08:58:15;;;;;;;26.67;8.02;;;;;;;;;;5000941;28;20073;-60
2021/01/17 09:01:01;;;;;;;28.80;8.00;;;;;;;;;;4990025;28;20096;-61
2021/01/17 09:03:28;;;;;;;25.90;8.32;;;;;;;;;;4998889;28;20092;-61
2021/01/17 09:05:54;;;;;;;25.80;8.85;;;;;;;;;;4985795;28;20042;-60
2021/01/17 09:08:21;;;;;;;27.17;7.93;;;;;;;;;;5000344;28;20041;-60
2021/01/17 09:10:49;;;;;;;23.42;7.85;;;;;;;;;;4987583;28;20050;-60
2021/01/17 09:13:21;;;;;;;28.83;8.73;;;;;;;;;;4981532;28;20153;-60
2021/01/17 09:15:56;;;;;;;25.55;8.07;;;;;;;;;;4987634;28;20038;-61
2021/01/17 09:18:23;;;;;;;27.95;8.27;;;;;;;;;;4984375;28;20111;-60
2021/01/17 09:20:52;;;;;;;21.45;7.95;;;;;;;;;;5003884;28;20038;-61
2021/01/17 09:23:18;;;;;;;25.02;7.88;;;;;;;;;;4985116;28;20038;-61
2021/01/17 09:25:46;;;;;;;28.25;9.02;;;;;;;;;;4988347;28;20034;-60
2021/01/17 09:28:14;;;;;;;22.75;8.00;;;;;;;;;;4983034;28;20070;-61
2021/01/17 09:30:46;;;;;;;28.23;8.02;;;;;;;;;;4988856;28;20046;-61
2021/01/17 09:33:14;;;;;;;21.05;8.15;;;;;;;;;;4985212;28;20050;-61
2021/01/17 09:35:40;;;;;;;28.42;8.60;;;;;;;;;;4988332;28;20038;-60
2021/01/17 09:38:07;;;;;;;27.25;8.68;;;;;;;;;;4983892;28;20030;-60
2021/01/17 09:40:38;;;;;;;24.88;7.97;;;;;;;;;;4988754;28;20049;-61
2021/01/17 09:43:04;;;;;;;20.50;8.13;;;;;;;;;;5005039;28;20030;-60
2021/01/17 09:45:31;;;;;;;23.00;7.93;;;;;;;;;;4985233;28;20066;-61
2021/01/17 09:47:58;;;;;;;25.58;7.60;;;;;;;;;;4987649;28;20053;-60
2021/01/17 09:50:31;;;;;;;29.65;8.77;;;;;;;;;;4983080;28;20035;-61
2021/01/17 09:53:04;;;;;;;23.05;7.85;;;;;;;;;;4988516;28;20049;-61
2021/01/17 09:55:30;;;;;;;31.98;11.15;;;;;;;;;;4983024;28;20035;-60
2021/01/17 09:57:56;;;;;;;34.20;9.38;;;;;;;;;;4984956;28;20038;-60
2021/01/17 10:00:27;;;;;;;26.73;8.13;;;;;;;;;;4982694;28;20039;-59
2021/01/17 10:02:55;;;;;;;21.92;6.80;;;;;;;;;;4996071;28;20030;-61
2021/01/17 10:05:27;;;;;;;22.55;6.68;;;;;;;;;;4989420;28;20046;-61
2021/01/17 10:08:00;;;;;;;21.25;6.70;;;;;;;;;;4992507;28;20056;-61
2021/01/17 10:10:28;;;;;;;25.15;7.07;;;;;;;;;;4990837;28;20038;-59
2021/01/17 10:12:54;;;;;;;20.03;6.40;;;;;;;;;;4999590;28;20058;-60
2021/01/17 10:15:20;;;;;;;24.92;7.40;;;;;;;;;;4993182;28;20053;-60
2021/01/17 10:17:46;;;;;;;21.20;6.20;;;;;;;;;;4999506;28;20033;-61
2021/01/17 10:20:22;;;;;;;24.02;6.65;;;;;;;;;;4995593;28;20098;-61
2021/01/17 10:22:48;;;;;;;24.05;6.90;;;;;;;;;;4997402;28;20069;-60
2021/01/17 10:25:18;;;;;;;16.48;5.45;;;;;;;;;;4993905;28;20062;-61
2021/01/17 10:27:45;;;;;;;19.65;6.47;;;;;;;;;;4997635;28;20090;-61
2021/01/17 10:30:18;;;;;;;15.02;5.90;;;;;;;;;;4996230;28;20048;-59
2021/01/17 10:32:44;;;;;;;17.20;5.40;;;;;;;;;;4999479;28;20068;-61
2021/01/17 10:35:11;;;;;;;22.25;5.68;;;;;;;;;;5011786;28;20027;-61
2021/01/17 10:37:38;;;;;;;31.58;6.70;;;;;;;;;;5016909;28;20120;-62
2021/01/17 10:40:06;;;;;;;19.73;6.25;;;;;;;;;;4998913;28;20038;-59
2021/01/17 10:42:33;;;;;;;26.53;8.67;;;;;;;;;;4987291;28;20132;-60
2021/01/17 10:45:00;;;;;;;25.35;8.18;;;;;;;;;;5001103;28;20077;-61
2021/01/17 10:47:35;;;;;;;33.67;10.18;;;;;;;;;;5012587;28;20074;-61
2021/01/17 10:50:04;;;;;;;33.53;10.18;;;;;;;;;;4998848;28;20045;-61
2021/01/17 10:52:30;;;;;;;;;;;;;;;;;;4993095;28;20112;-59
2021/01/17 10:54:58;;;;;;;23.90;6.03;;;;;;;;;;5018743;28;19921;-61
2021/01/17 10:57:24;;;;;;;18.70;6.40;;;;;;;;;;4990029;28;20042;-61
2021/01/17 10:59:56;;;;;;;21.02;4.78;;;;;;;;;;4995422;28;20050;-60
2021/01/17 11:02:23;;;;;;;14.85;4.68;;;;;;;;;;4989820;28;20049;-60
2021/01/17 11:04:49;;;;;;;22.42;4.82;;;;;;;;;;5001862;28;20132;-59
2021/01/17 11:07:18;;;;;;;15.38;4.22;;;;;;;;;;4989494;28;20038;-60
2021/01/17 11:09:44;;;;;;;18.77;3.53;;;;;;;;;;4993524;28;20041;-60
2021/01/17 11:12:11;;;;;;;14.95;4.20;;;;;;;;;;4985543;28;20062;-60
2021/01/17 11:14:37;;;;;;;12.73;3.30;;;;;;;;;;4998666;28;20057;-61
2021/01/17 11:17:03;;;;;;;21.45;3.95;;;;;;;;;;4987510;28;20053;-60
2021/01/17 11:19:33;;;;;;;23.13;3.97;;;;;;;;;;4996024;28;20050;-60
2021/01/17 11:22:00;;;;;;;16.42;3.70;;;;;;;;;;4996229;28;20038;-61
2021/01/17 11:24:31;;;;;;;14.90;3.97;;;;;;;;;;5007234;28;20133;-61
2021/01/17 11:27:05;;;;;;;22.58;3.28;;;;;;;;;;4994234;28;20066;-61
2021/01/17 11:29:32;;;;;;;15.20;3.20;;;;;;;;;;4995071;28;20040;-60
2021/01/17 11:31:58;;;;;;;18.13;4.38;;;;;;;;;;4999923;28;20149;-60
2021/01/17 11:34:24;;;;;;;16.25;3.17;;;;;;;;;;4993243;28;20042;-60
2021/01/17 11:36:56;;;;;;;16.08;3.88;;;;;;;;;;4992366;28;20038;-60
2021/01/17 11:39:22;;;;;;;19.27;3.10;;;;;;;;;;5013339;28;20066;-61
2021/01/17 11:41:48;;;;;;;17.45;3.10;;;;;;;;;;4998599;28;20029;-60
2021/01/17 11:44:15;;;;;;;14.55;3.08;;;;;;;;;;4988437;28;20042;-60
2021/01/17 11:46:43;;;;;;;17.75;3.35;;;;;;;;;;4995439;28;20090;-61
2021/01/17 11:49:09;;;;;;;15.80;3.67;;;;;;;;;;4990882;28;20041;-61
2021/01/17 11:51:38;;;;;;;18.30;3.53;;;;;;;;;;4994308;28;20034;-60
2021/01/17 11:54:10;;;;;;;11.73;2.80;;;;;;;;;;4994704;28;20169;-60
2021/01/17 11:56:36;;;;;;;23.45;5.68;;;;;;;;;;5002430;28;20109;-61
2021/01/17 11:59:03;;;;;;;15.07;3.92;;;;;;;;;;4995517;28;20057;-60
2021/01/17 12:01:31;;;;;;;20.25;3.42;;;;;;;;;;4997040;28;20034;-61
2021/01/17 12:04:00;;;;;;;16.17;3.20;;;;;;;;;;4994616;28;20058;-60
2021/01/17 12:06:27;;;;;;;14.75;2.92;;;;;;;;;;4991577;28;20082;-60
2021/01/17 12:08:57;;;;;;;30.15;4.18;;;;;;;;;;4987462;28;20061;-61
2021/01/17 12:11:32;;;;;;;20.08;3.65;;;;;;;;;;4988407;28;20038;-61
2021/01/17 12:13:59;;;;;;;15.15;2.78;;;;;;;;;;4992050;28;20088;-61
2021/01/17 12:16:31;;;;;;;15.15;2.42;;;;;;;;;;4987590;28;20039;-60
2021/01/17 12:18:57;;;;;;;13.05;2.42;;;;;;;;;;4993583;28;20062;-61
2021/01/17 12:21:29;;;;;;;14.75;2.42;;;;;;;;;;4984226;28;20030;-60
2021/01/17 12:23:55;;;;;;;17.17;2.03;;;;;;;;;;4989730;28;20116;-60
2021/01/17 12:26:23;;;;;;;10.10;1.83;;;;;;;;;;5008527;28;20038;-61
2021/01/17 12:28:50;;;;;;;17.07;2.77;;;;;;;;;;4987641;28;20046;-60
2021/01/17 12:31:16;;;;;;;23.05;2.10;;;;;;;;;;4987539;28;20297;-60
2021/01/17 12:33:42;;;;;;;11.80;2.53;;;;;;;;;;5005191;28;20034;-60
2021/01/17 12:36:09;;;;;;;15.23;2.10;;;;;;;;;;4988440;28;20256;-60
2021/01/17 12:38:36;;;;;;;7.03;1.65;;;;;;;;;;5006081;28;20139;-60
2021/01/17 12:41:06;;;;;;;12.98;1.73;;;;;;;;;;4986737;28;20065;-61
2021/01/17 12:43:32;;;;;;;15.30;1.73;;;;;;;;;;5003248;28;20073;-60
2021/01/17 12:45:59;;;;;;;9.05;1.27;;;;;;;;;;5010116;28;20049;-61
2021/01/17 12:48:25;;;;;;;10.63;1.58;;;;;;;;;;5013629;28;20053;-61
2021/01/17 12:50:53;;;;;;;12.20;2.75;;;;;;;;;;4984890;28;20062;-61
2021/01/17 12:53:19;;;;;;;10.77;2.33;;;;;;;;;;4996250;28;20054;-60
2021/01/17 12:55:46;;;;;;;14.45;1.55;;;;;;;;;;4988519;28;20058;-61
2021/01/17 12:58:13;;;;;;;14.55;1.90;;;;;;;;;;4995243;28;20374;-60
2021/01/17 13:00:40;;;;;;;15.50;2.00;;;;;;;;;;4991375;28;20038;-61
2021/01/17 13:03:06;;;;;;;9.95;1.30;;;;;;;;;;4987096;28;20042;-61
2021/01/17 13:05:32;;;;;;;12.85;1.50;;;;;;;;;;4989608;28;20030;-62
2021/01/17 13:07:58;;;;;;;7.72;1.67;;;;;;;;;;4987018;28;20037;-61
2021/01/17 13:10:24;;;;;;;6.93;1.23;;;;;;;;;;4991662;28;20042;-61
2021/01/17 13:12:51;;;;;;;8.95;1.60;;;;;;;;;;4983609;28;20038;-61
2021/01/17 13:15:17;;;;;;;9.65;1.60;;;;;;;;;;5017530;28;20044;-61
2021/01/17 13:17:43;;;;;;;15.23;2.25;;;;;;;;;;5004575;28;20116;-61
2021/01/17 13:20:14;;;;;;;8.10;1.25;;;;;;;;;;4990193;28;20038;-61
2021/01/17 13:22:41;;;;;;;14.63;1.40;;;;;;;;;;5006460;28;20062;-61
2021/01/17 13:25:08;;;;;;;12.65;1.48;;;;;;;;;;5015600;28;20048;-61
2021/01/17 13:27:34;;;;;;;10.35;1.42;;;;;;;;;;4988406;28;20041;-61
2021/01/17 13:30:01;;;;;;;11.95;1.50;;;;;;;;;;5007957;28;20123;-61
2021/01/17 13:32:27;;;;;;;9.77;1.20;;;;;;;;;;4988526;28;20049;-61
2021/01/17 13:34:53;;;;;;;11.73;1.27;;;;;;;;;;4990406;28;20041;-61
2021/01/17 13:37:19;;;;;;;10.10;1.58;;;;;;;;;;5001774;28;20098;-61
2021/01/17 13:39:49;;;;;;;12.93;1.75;;;;;;;;;;5004924;28;20041;-62
2021/01/17 13:42:18;;;;;;;11.07;1.38;;;;;;;;;;4992670;28;20141;-62
2021/01/17 13:44:44;;;;;;;14.73;2.00;;;;;;;;;;4987905;28;20038;-61
2021/01/17 13:47:11;;;;;;;14.00;1.75;;;;;;;;;;5005502;28;20045;-62
2021/01/17 13:49:40;;;;;;;6.45;1.45;;;;;;;;;;5006174;28;20049;-61
2021/01/17 13:52:06;;;;;;;11.82;1.90;;;;;;;;;;4992868;28;20030;-61
2021/01/17 13:54:32;;;;;;;14.65;1.80;;;;;;;;;;4989671;28;20042;-61
2021/01/17 13:56:58;;;;;;;9.70;1.52;;;;;;;;;;5010539;28;20045;-61
2021/01/17 13:59:25;;;;;;;13.77;2.05;;;;;;;;;;4987935;28;20063;-61
2021/01/17 14:01:51;;;;;;;17.13;1.77;;;;;;;;;;4991426;28;20044;-61
2021/01/17 14:04:18;;;;;;;11.13;1.42;;;;;;;;;;4992779;28;20034;-61
2021/01/17 14:06:44;;;;;;;9.02;1.33;;;;;;;;;;5017850;28;20149;-62
2021/01/17 14:09:11;;;;;;;9.60;1.77;;;;;;;;;;4994104;28;20038;-61
2021/01/17 14:11:38;;;;;;;20.83;2.25;;;;;;;;;;5003248;28;20044;-61
2021/01/17 14:14:05;;;;;;;19.02;3.13;;;;;;;;;;4996173;28;20104;-62
2021/01/17 14:16:38;;;;;;;21.00;2.42;;;;;;;;;;5002306;28;20062;-62
2021/01/17 14:19:04;;;;;;;15.50;1.60;;;;;;;;;;5002723;28;20050;-62
2021/01/17 14:21:44;;;;;;;9.77;1.70;;;;;;;;;;5000079;28;20046;-61
2021/01/17 14:24:10;;;;;;;10.23;2.10;;;;;;;;;;5009247;28;20136;-62
2021/01/17 14:26:37;;;;;;;14.38;2.15;;;;;;;;;;4999647;28;20042;-62
2021/01/17 14:29:03;;;;;;;15.27;2.08;;;;;;;;;;4998663;28;20022;-61
2021/01/17 14:31:38;;;;;;;8.93;1.58;;;;;;;;;;4994460;28;20038;-61
2021/01/17 14:34:05;;;;;;;12.70;1.48;;;;;;;;;;4998035;28;20033;-61
2021/01/17 14:36:31;;;;;;;9.95;1.52;;;;;;;;;;4999245;28;20026;-61
2021/01/17 14:38:58;;;;;;;20.92;1.90;;;;;;;;;;4998924;28;20061;-61
2021/01/17 14:41:35;;;;;;;6.63;1.25;;;;;;;;;;5013097;28;20046;-61
2021/01/17 14:44:01;;;;;;;15.73;1.52;;;;;;;;;;5020147;28;20037;-61